createdAt,value
2022-08-20T00:02:20.325Z,26.86
2022-08-20T00:04:52.613Z,26.86
2022-08-20T00:07:24.841Z,26.83
2022-08-20T00:09:57.140Z,26.79
2022-08-20T00:12:30.033Z,26.78
2022-08-20T00:15:02.456Z,26.77
2022-08-20T00:17:36.927Z,26.73
2022-08-20T00:20:14.287Z,26.72
2022-08-20T00:22:46.476Z,26.65
2022-08-20T00:25:19.995Z,26.65
2022-08-20T00:27:52.298Z,26.61
2022-08-20T00:30:25.464Z,26.56
2022-08-20T00:33:00.880Z,26.54
2022-08-20T00:35:36.723Z,26.52
2022-08-20T00:38:09.060Z,26.48
2022-08-20T00:40:45.005Z,26.43
2022-08-20T00:43:37.323Z,26.40
2022-08-20T00:46:12.328Z,26.38
2022-08-20T00:48:47.921Z,26.35
2022-08-20T00:51:29.984Z,26.32
2022-08-20T00:54:08.217Z,26.30
2022-08-20T00:56:44.147Z,26.26
2022-08-20T00:59:22.834Z,26.24
2022-08-20T01:01:56.431Z,26.19
2022-08-20T01:04:33.812Z,26.19
2022-08-20T01:07:08.529Z,26.17
2022-08-20T01:09:58.423Z,26.16
2022-08-20T01:12:33.661Z,26.14
2022-08-20T01:15:12.007Z,26.12
2022-08-20T01:17:47.348Z,26.11
2022-08-20T01:20:24.216Z,26.06
2022-08-20T01:23:23.055Z,26.03
2022-08-20T01:26:00.425Z,26.01
2022-08-20T01:28:38.326Z,25.97
2022-08-20T01:31:13.019Z,25.93
2022-08-20T01:33:46.223Z,25.88
2022-08-20T01:36:23.839Z,25.82
2022-08-20T01:38:56.319Z,25.80
2022-08-20T01:41:40.848Z,25.78
2022-08-20T01:44:16.887Z,25.76
2022-08-20T01:46:55.346Z,25.74
2022-08-20T01:49:34.987Z,25.73
2022-08-20T01:52:11.558Z,25.73
2022-08-20T01:54:43.829Z,25.73
2022-08-20T01:57:18.567Z,25.73
2022-08-20T01:59:51.611Z,25.72
2022-08-20T02:02:25.089Z,25.70
2022-08-20T02:04:58.846Z,25.67
2022-08-20T02:07:32.556Z,25.64
2022-08-20T02:10:05.854Z,25.60
2022-08-20T02:12:39.964Z,25.59
2022-08-20T02:15:14.353Z,25.57
2022-08-20T02:17:46.951Z,25.52
2022-08-20T02:20:25.227Z,25.51
2022-08-20T02:22:59.860Z,25.50
2022-08-20T02:25:35.200Z,25.48
2022-08-20T02:28:07.281Z,25.47
2022-08-20T02:30:43.907Z,25.42
2022-08-20T02:33:18.485Z,25.46
2022-08-20T02:35:53.208Z,25.45
2022-08-20T02:38:25.502Z,25.44
2022-08-20T02:40:57.672Z,25.44
2022-08-20T02:43:32.106Z,25.43
2022-08-20T02:46:05.035Z,25.39
2022-08-20T02:48:37.316Z,25.42
2022-08-20T02:51:10.291Z,25.40
2022-08-20T02:53:43.234Z,25.39
2022-08-20T02:56:16.248Z,25.37
2022-08-20T02:58:48.879Z,25.35
2022-08-20T03:01:21.315Z,25.34
2022-08-20T03:03:53.625Z,25.33
2022-08-20T03:06:26.266Z,25.32
2022-08-20T03:08:58.987Z,25.32
2022-08-20T03:11:31.747Z,25.33
2022-08-20T03:14:03.936Z,25.31
2022-08-20T03:16:36.112Z,25.26
2022-08-20T03:19:08.653Z,25.29
2022-08-20T03:21:40.885Z,25.27
2022-08-20T03:24:13.176Z,25.20
2022-08-20T03:26:45.410Z,25.15
2022-08-20T03:29:17.617Z,25.11
2022-08-20T03:31:49.849Z,25.11
2022-08-20T03:34:22.031Z,25.12
2022-08-20T03:36:54.229Z,25.10
2022-08-20T03:39:26.427Z,25.09
2022-08-20T03:41:58.670Z,25.10
2022-08-20T03:44:30.840Z,25.12
2022-08-20T03:47:03.936Z,25.13
2022-08-20T03:49:36.402Z,25.12
2022-08-20T03:52:09.313Z,25.11
2022-08-20T03:54:41.608Z,25.10
2022-08-20T03:57:16.850Z,25.09
2022-08-20T03:59:49.811Z,25.07
2022-08-20T04:02:27.498Z,25.06
2022-08-20T04:04:59.659Z,25.06
2022-08-20T04:07:31.804Z,25.09
2022-08-20T04:10:10.042Z,25.09
2022-08-20T04:12:52.691Z,25.10
2022-08-20T04:15:25.891Z,25.12
2022-08-20T04:17:58.300Z,25.14
2022-08-20T04:20:30.884Z,25.17
2022-08-20T04:23:02.988Z,25.22
2022-08-20T04:25:37.052Z,25.22
2022-08-20T04:28:25.748Z,25.26
2022-08-20T04:31:00.037Z,25.31
2022-08-20T04:33:34.016Z,25.36
2022-08-20T04:36:07.051Z,25.38
2022-08-20T04:38:48.490Z,25.42
2022-08-20T04:41:24.392Z,25.46
2022-08-20T04:43:58.330Z,25.51
2022-08-20T04:46:32.831Z,25.56
2022-08-20T04:49:05.193Z,25.60
2022-08-20T04:51:37.649Z,25.64
2022-08-20T04:54:09.945Z,25.68
2022-08-20T04:56:42.264Z,25.74
2022-08-20T04:59:14.384Z,25.78
2022-08-20T05:01:46.570Z,25.82
2022-08-20T05:04:18.759Z,25.88
2022-08-20T05:06:51.125Z,25.94
2022-08-20T05:09:23.309Z,26.00
2022-08-20T05:11:55.543Z,26.05
2022-08-20T05:14:28.004Z,26.12
2022-08-20T05:17:03.652Z,26.18
2022-08-20T05:19:38.960Z,26.24
2022-08-20T05:22:11.304Z,26.27
2022-08-20T05:24:43.551Z,26.36
2022-08-20T05:27:24.785Z,26.41
2022-08-20T05:30:01.520Z,26.48
2022-08-20T05:32:35.657Z,26.54
2022-08-20T05:35:17.095Z,26.60
2022-08-20T05:37:49.638Z,26.66
2022-08-20T05:40:23.389Z,26.72
2022-08-20T05:42:56.010Z,26.76
2022-08-20T05:45:28.518Z,26.81
2022-08-20T05:48:01.376Z,26.87
2022-08-20T05:50:36.243Z,26.93
2022-08-20T05:53:08.743Z,27.01
2022-08-20T05:55:41.988Z,27.08
2022-08-20T05:58:19.804Z,27.17
2022-08-20T06:00:53.404Z,27.28
2022-08-20T06:03:43.709Z,27.37
2022-08-20T06:06:30.224Z,27.50
2022-08-20T06:09:08.511Z,27.61
2022-08-20T06:11:40.719Z,27.70
2022-08-20T06:14:12.951Z,27.82
2022-08-20T06:16:57.411Z,27.89
2022-08-20T06:19:32.427Z,28.01
2022-08-20T06:22:17.644Z,28.12
2022-08-20T06:24:53.334Z,28.26
2022-08-20T06:27:26.324Z,28.40
2022-08-20T06:29:58.516Z,28.54
2022-08-20T06:32:32.761Z,28.71
2022-08-20T06:35:07.327Z,28.86
2022-08-20T06:37:41.573Z,29.04
2022-08-20T06:40:17.292Z,29.22
2022-08-20T06:42:49.580Z,29.42
2022-08-20T06:45:25.330Z,29.61
2022-08-20T06:48:00.077Z,29.80
2022-08-20T06:50:43.181Z,30.04
2022-08-20T06:53:21.960Z,30.30
2022-08-20T06:55:56.161Z,30.49
2022-08-20T06:58:37.833Z,30.61
2022-08-20T07:01:13.871Z,30.84
2022-08-20T07:03:54.697Z,31.04
2022-08-20T07:06:28.488Z,31.26
2022-08-20T07:09:00.728Z,31.42
2022-08-20T07:11:35.349Z,31.52
2022-08-20T07:14:07.559Z,31.55
2022-08-20T07:16:40.232Z,31.64
2022-08-20T07:19:12.476Z,31.83
2022-08-20T07:21:44.811Z,31.94
2022-08-20T07:24:17.005Z,32.02
2022-08-20T07:26:49.460Z,32.17
2022-08-20T07:29:21.865Z,32.30
2022-08-20T07:32:11.339Z,32.43
2022-08-20T07:34:43.661Z,32.62
2022-08-20T07:37:17.147Z,32.87
2022-08-20T07:39:52.607Z,33.12
2022-08-20T07:42:24.856Z,33.39
2022-08-20T07:44:57.059Z,33.76
2022-08-20T07:47:29.282Z,34.04
2022-08-20T07:50:01.567Z,34.16
2022-08-20T07:52:35.426Z,34.01
2022-08-20T07:55:11.257Z,34.05
2022-08-20T07:57:44.134Z,34.26
2022-08-20T08:00:19.347Z,34.58
2022-08-20T08:02:51.555Z,34.87
2022-08-20T08:05:24.036Z,34.94
2022-08-20T08:07:57.657Z,35.02
2022-08-20T08:10:30.495Z,35.12
2022-08-20T08:13:07.168Z,35.12
2022-08-20T08:15:41.528Z,35.31
2022-08-20T08:18:17.524Z,35.47
2022-08-20T08:20:53.751Z,35.64
2022-08-20T08:23:32.123Z,35.93
2022-08-20T08:26:04.699Z,36.23
2022-08-20T08:28:37.192Z,36.44
2022-08-20T08:31:09.691Z,36.50
2022-08-20T08:33:42.519Z,36.33
2022-08-20T08:36:17.090Z,36.07
2022-08-20T08:38:47.791Z,35.89
2022-08-20T08:41:23.024Z,35.74
2022-08-20T08:43:58.783Z,35.45
2022-08-20T08:46:33.745Z,35.32
2022-08-20T08:49:06.057Z,35.25
2022-08-20T08:51:44.000Z,35.27
2022-08-20T08:54:19.971Z,35.52
2022-08-20T08:56:55.787Z,35.79
2022-08-20T08:59:52.111Z,35.94
2022-08-20T09:02:27.561Z,36.31
2022-08-20T09:05:03.081Z,36.63
2022-08-20T09:07:38.010Z,36.56
2022-08-20T09:10:13.115Z,36.24
2022-08-20T09:12:47.832Z,36.07
2022-08-20T09:15:21.365Z,36.27
2022-08-20T09:17:54.019Z,36.61
2022-08-20T09:20:27.002Z,36.83
2022-08-20T09:22:59.759Z,36.87
2022-08-20T09:25:32.096Z,36.93
2022-08-20T09:28:04.460Z,36.99
2022-08-20T09:30:37.547Z,36.96
2022-08-20T09:33:10.600Z,36.73
2022-08-20T09:35:44.951Z,36.20
2022-08-20T09:38:17.217Z,36.15
2022-08-20T09:40:49.413Z,36.36
2022-08-20T09:43:21.656Z,36.61
2022-08-20T09:45:53.892Z,36.64
2022-08-20T09:48:31.858Z,36.39
2022-08-20T09:51:05.416Z,36.39
2022-08-20T09:53:38.006Z,36.67
2022-08-20T09:56:11.587Z,37.00
2022-08-20T09:58:51.076Z,37.34
2022-08-20T10:01:24.342Z,37.64
2022-08-20T10:03:56.597Z,37.89
2022-08-20T10:06:28.802Z,37.85
2022-08-20T10:09:01.048Z,37.50
2022-08-20T10:11:33.243Z,36.97
2022-08-20T10:14:05.585Z,36.71
2022-08-20T10:16:38.568Z,36.64
2022-08-20T10:19:10.780Z,36.74
2022-08-20T10:21:43.618Z,37.01
2022-08-20T10:24:15.819Z,37.19
2022-08-20T10:26:48.628Z,37.24
2022-08-20T10:29:20.875Z,37.08
2022-08-20T10:31:53.080Z,36.77
2022-08-20T10:34:25.587Z,36.54
2022-08-20T10:36:59.190Z,36.58
2022-08-20T10:39:31.554Z,36.59
2022-08-20T10:42:04.460Z,36.68
2022-08-20T10:44:36.284Z,36.91
2022-08-20T10:47:21.756Z,36.93
2022-08-20T10:49:56.611Z,36.97
2022-08-20T10:52:29.775Z,36.85
2022-08-20T10:55:04.367Z,36.71
2022-08-20T10:57:34.907Z,36.91
2022-08-20T11:00:09.123Z,37.16
2022-08-20T11:02:41.820Z,37.24
2022-08-20T11:05:13.989Z,37.31
2022-08-20T11:07:55.314Z,37.37
2022-08-20T11:10:31.192Z,37.35
2022-08-20T11:13:01.863Z,37.31
2022-08-20T11:15:35.151Z,37.21
2022-08-20T11:18:07.952Z,37.11
2022-08-20T11:20:40.538Z,37.07
2022-08-20T11:23:13.010Z,36.87
2022-08-20T11:25:45.177Z,36.71
2022-08-20T11:28:17.770Z,36.62
2022-08-20T11:31:04.582Z,36.42
2022-08-20T11:33:36.771Z,36.22
2022-08-20T11:36:09.971Z,36.08
2022-08-20T11:38:42.143Z,35.94
2022-08-20T11:41:14.536Z,35.87
2022-08-20T11:44:04.715Z,35.84
2022-08-20T11:46:38.906Z,35.81
2022-08-20T11:49:11.143Z,35.80
2022-08-20T11:51:49.830Z,35.79
2022-08-20T11:54:22.649Z,35.74
2022-08-20T11:56:54.883Z,35.62
2022-08-20T11:59:27.798Z,35.50
2022-08-20T12:02:02.746Z,35.37
2022-08-20T12:04:35.824Z,35.24
2022-08-20T12:07:13.518Z,35.11
2022-08-20T12:09:51.342Z,35.03
2022-08-20T12:12:25.272Z,35.02
2022-08-20T12:14:57.925Z,35.06
2022-08-20T12:17:32.932Z,35.10
2022-08-20T12:20:09.024Z,35.11
2022-08-20T12:22:41.233Z,35.09
2022-08-20T12:25:14.272Z,35.06
2022-08-20T12:27:47.290Z,35.01
2022-08-20T12:30:21.813Z,34.97
2022-08-20T12:32:54.383Z,34.91
2022-08-20T12:35:28.397Z,34.90
2022-08-20T12:38:06.937Z,34.85
2022-08-20T12:40:39.619Z,34.77
2022-08-20T12:43:11.807Z,34.69
2022-08-20T12:45:44.022Z,34.67
2022-08-20T12:48:16.703Z,34.67
2022-08-20T12:50:50.283Z,34.66
2022-08-20T12:53:22.815Z,34.59
2022-08-20T12:55:55.084Z,34.39
2022-08-20T12:58:27.301Z,34.25
2022-08-20T13:00:59.554Z,34.26
2022-08-20T13:03:32.327Z,34.29
2022-08-20T13:06:05.568Z,34.29
2022-08-20T13:08:37.908Z,34.28
2022-08-20T13:11:10.182Z,34.28
2022-08-20T13:13:43.661Z,34.26
2022-08-20T13:16:16.869Z,34.26
2022-08-20T13:18:49.105Z,34.25
2022-08-20T13:21:23.971Z,34.20
2022-08-20T13:23:56.451Z,34.14
2022-08-20T13:26:28.622Z,34.08
2022-08-20T13:29:03.316Z,34.09
2022-08-20T13:31:35.481Z,34.08
2022-08-20T13:34:07.778Z,34.11
2022-08-20T13:36:40.956Z,34.12
2022-08-20T13:39:13.149Z,34.13
2022-08-20T13:41:45.419Z,34.14
2022-08-20T13:44:18.483Z,34.14
2022-08-20T13:46:50.719Z,34.15
2022-08-20T13:49:23.071Z,34.16
2022-08-20T13:51:55.259Z,34.15
2022-08-20T13:54:30.274Z,34.14
2022-08-20T13:57:10.033Z,34.14
2022-08-20T13:59:44.268Z,34.12
2022-08-20T14:02:17.652Z,34.11
2022-08-20T14:04:50.760Z,34.10
2022-08-20T14:07:28.760Z,34.08
2022-08-20T14:10:07.134Z,34.04
2022-08-20T14:12:39.339Z,34.02
2022-08-20T14:15:14.002Z,34.02
2022-08-20T14:17:49.999Z,34.00
2022-08-20T14:20:25.409Z,33.96
2022-08-20T14:23:02.591Z,33.95
2022-08-20T14:25:36.149Z,33.91
2022-08-20T14:28:18.245Z,33.86
2022-08-20T14:30:53.455Z,33.85
2022-08-20T14:33:27.108Z,33.86
2022-08-20T14:35:59.227Z,33.88
2022-08-20T14:38:31.529Z,33.89
2022-08-20T14:41:03.796Z,33.91
2022-08-20T14:43:35.988Z,33.90
2022-08-20T14:46:08.423Z,33.81
2022-08-20T14:48:40.604Z,33.80
2022-08-20T14:51:12.827Z,33.77
2022-08-20T14:53:45.046Z,33.76
2022-08-20T14:56:18.155Z,33.74
2022-08-20T14:58:50.784Z,33.72
2022-08-20T15:01:22.996Z,33.72
2022-08-20T15:03:55.358Z,33.74
2022-08-20T15:06:27.633Z,33.77
2022-08-20T15:09:00.302Z,33.78
2022-08-20T15:11:34.668Z,33.78
2022-08-20T15:14:06.997Z,33.74
2022-08-20T15:16:40.996Z,33.68
2022-08-20T15:19:13.160Z,33.66
2022-08-20T15:21:45.859Z,33.67
2022-08-20T15:24:19.306Z,33.67
2022-08-20T15:26:51.980Z,33.63
2022-08-20T15:29:24.128Z,33.56
2022-08-20T15:31:56.308Z,33.49
2022-08-20T15:34:29.192Z,33.45
2022-08-20T15:37:07.063Z,33.45
2022-08-20T15:39:39.874Z,33.47
2022-08-20T15:42:13.676Z,33.49
2022-08-20T15:44:46.705Z,33.50
2022-08-20T15:47:24.933Z,33.51
2022-08-20T15:50:02.711Z,33.51
2022-08-20T15:52:41.867Z,33.51
2022-08-20T15:55:17.560Z,33.52
2022-08-20T15:57:56.863Z,33.52
2022-08-20T16:00:41.730Z,33.52
2022-08-20T16:03:46.644Z,33.50
2022-08-20T16:06:26.272Z,33.49
2022-08-20T16:09:15.795Z,33.48
2022-08-20T16:11:56.224Z,33.47
2022-08-20T16:14:33.732Z,33.44
2022-08-20T16:17:11.003Z,33.41
2022-08-20T16:19:52.299Z,33.37
2022-08-20T16:22:25.444Z,33.36
2022-08-20T16:24:57.923Z,33.33
2022-08-20T16:27:40.699Z,33.30
2022-08-20T16:30:21.774Z,33.28
2022-08-20T16:33:01.923Z,33.25
2022-08-20T16:35:38.852Z,33.21
2022-08-20T16:38:21.382Z,33.17
2022-08-20T16:40:57.463Z,33.11
2022-08-20T16:43:38.105Z,33.05
2022-08-20T16:46:17.884Z,33.00
2022-08-20T16:48:58.223Z,32.94
2022-08-20T16:51:49.426Z,32.90
2022-08-20T16:54:29.675Z,32.85
2022-08-20T16:57:07.399Z,32.80
2022-08-20T16:59:57.588Z,32.77
2022-08-20T17:02:30.188Z,32.71
2022-08-20T17:05:06.629Z,32.68
2022-08-20T17:07:49.444Z,32.64
2022-08-20T17:10:27.475Z,32.59
2022-08-20T17:13:04.278Z,32.55
2022-08-20T17:15:39.922Z,32.51
2022-08-20T17:18:23.907Z,32.47
2022-08-20T17:21:01.712Z,32.42
2022-08-20T17:23:54.585Z,32.37
2022-08-20T17:26:35.414Z,32.32
2022-08-20T17:29:16.338Z,32.27
2022-08-20T17:31:51.677Z,32.23
2022-08-20T17:34:26.479Z,32.19
2022-08-20T17:37:02.136Z,32.14
2022-08-20T17:39:34.487Z,32.10
2022-08-20T17:42:11.842Z,32.05
2022-08-20T17:44:49.480Z,32.01
2022-08-20T17:47:25.559Z,31.97
2022-08-20T17:50:03.269Z,31.93
2022-08-20T17:52:40.420Z,31.90
2022-08-20T17:55:14.036Z,31.86
2022-08-20T17:57:49.759Z,31.84
2022-08-20T18:00:25.861Z,31.80
2022-08-20T18:03:03.152Z,31.76
2022-08-20T18:05:38.868Z,31.72
2022-08-20T18:08:28.958Z,31.68
2022-08-20T18:11:10.066Z,31.62
2022-08-20T18:13:52.212Z,31.55
2022-08-20T18:16:30.843Z,31.53
2022-08-20T18:19:15.246Z,31.49
2022-08-20T18:22:11.244Z,31.43
2022-08-20T18:24:52.420Z,31.37
2022-08-20T18:27:26.862Z,31.32
2022-08-20T18:30:01.973Z,31.25
2022-08-20T18:32:37.014Z,31.20
2022-08-20T18:35:12.454Z,31.16
2022-08-20T18:37:44.627Z,31.09
2022-08-20T18:40:33.242Z,31.03
2022-08-20T18:43:15.428Z,30.97
2022-08-20T18:45:47.688Z,30.89
2022-08-20T18:48:25.996Z,30.82
2022-08-20T18:50:59.719Z,30.73
2022-08-20T18:53:34.673Z,30.68
2022-08-20T18:56:06.208Z,30.61
2022-08-20T18:58:51.424Z,30.52
2022-08-20T19:01:25.298Z,30.44
2022-08-20T19:03:59.372Z,30.35
2022-08-20T19:06:46.460Z,30.24
2022-08-20T19:09:27.740Z,30.18
2022-08-20T19:12:10.486Z,30.11
2022-08-20T19:15:02.090Z,30.04
2022-08-20T19:17:58.124Z,29.97
2022-08-20T19:20:33.589Z,29.89
2022-08-20T19:23:10.532Z,29.82
2022-08-20T19:25:53.880Z,29.76
2022-08-20T19:28:30.146Z,29.71
2022-08-20T19:31:14.103Z,29.67
2022-08-20T19:33:47.076Z,29.60
2022-08-20T19:36:22.170Z,29.58
2022-08-20T19:38:58.768Z,29.52
2022-08-20T19:41:33.496Z,29.43
2022-08-20T19:44:05.760Z,29.36
2022-08-20T19:46:40.679Z,29.29
2022-08-20T19:49:21.787Z,29.24
2022-08-20T19:52:04.991Z,29.18
2022-08-20T19:54:49.999Z,29.11
2022-08-20T19:57:24.264Z,29.07
2022-08-20T19:59:59.324Z,29.04
2022-08-20T20:02:35.401Z,29.01
2022-08-20T20:05:12.129Z,28.98
2022-08-20T20:07:47.269Z,28.95
2022-08-20T20:10:24.747Z,28.92
2022-08-20T20:12:57.074Z,28.88
2022-08-20T20:15:29.771Z,28.86
2022-08-20T20:18:02.644Z,28.84
2022-08-20T20:20:38.611Z,28.80
2022-08-20T20:23:38.830Z,28.75
2022-08-20T20:26:21.439Z,28.69
2022-08-20T20:28:56.052Z,28.64
2022-08-20T20:31:31.617Z,28.59
2022-08-20T20:34:11.027Z,28.54
2022-08-20T20:36:46.232Z,28.49
2022-08-20T20:39:28.447Z,28.44
2022-08-20T20:42:03.603Z,28.37
2022-08-20T20:44:38.536Z,28.33
2022-08-20T20:47:21.043Z,28.28
2022-08-20T20:49:56.215Z,28.23
2022-08-20T20:52:29.200Z,28.18
2022-08-20T20:55:13.292Z,28.11
2022-08-20T20:57:45.487Z,28.07
2022-08-20T21:00:21.364Z,28.04
2022-08-20T21:02:54.085Z,28.01
2022-08-20T21:05:28.787Z,27.96
2022-08-20T21:08:03.403Z,27.93
2022-08-20T21:10:38.403Z,27.89
2022-08-20T21:13:11.920Z,27.86
2022-08-20T21:15:44.142Z,27.84
2022-08-20T21:18:16.327Z,27.82
2022-08-20T21:20:50.860Z,27.78
2022-08-20T21:23:40.211Z,27.76
2022-08-20T21:26:14.383Z,27.74
2022-08-20T21:28:46.659Z,27.71
2022-08-20T21:31:18.927Z,27.68
2022-08-20T21:33:51.128Z,27.65
2022-08-20T21:36:23.266Z,27.61
2022-08-20T21:38:55.512Z,27.60
2022-08-20T21:41:30.160Z,27.56
2022-08-20T21:44:07.098Z,27.52
2022-08-20T21:46:39.312Z,27.47
2022-08-20T21:49:11.512Z,27.45
2022-08-20T21:51:43.791Z,27.42
2022-08-20T21:54:15.940Z,27.40
2022-08-20T21:56:50.739Z,27.37
2022-08-20T21:59:25.318Z,27.34
2022-08-20T22:01:58.119Z,27.31
2022-08-20T22:04:35.230Z,27.27
2022-08-20T22:07:08.411Z,27.25
2022-08-20T22:09:40.618Z,27.22
2022-08-20T22:12:19.071Z,27.18
2022-08-20T22:14:51.684Z,27.14
2022-08-20T22:17:23.923Z,27.10
2022-08-20T22:19:56.198Z,27.08
2022-08-20T22:22:28.418Z,27.06
2022-08-20T22:25:00.567Z,27.02
2022-08-20T22:27:32.918Z,27.00
2022-08-20T22:30:05.399Z,26.96
2022-08-20T22:32:50.465Z,26.95
2022-08-20T22:35:24.244Z,26.94
2022-08-20T22:37:56.416Z,26.91
2022-08-20T22:40:28.679Z,26.89
2022-08-20T22:43:01.058Z,26.85
2022-08-20T22:45:33.540Z,26.82
2022-08-20T22:48:06.942Z,26.82
2022-08-20T22:50:39.991Z,26.82
2022-08-20T22:53:14.256Z,26.80
2022-08-20T22:55:46.747Z,26.80
2022-08-20T22:58:20.422Z,26.79
2022-08-20T23:01:05.212Z,26.77
2022-08-20T23:03:39.733Z,26.76
2022-08-20T23:06:13.807Z,26.72
2022-08-20T23:08:46.208Z,26.70
2022-08-20T23:11:18.352Z,26.71
2022-08-20T23:13:50.589Z,26.70
2022-08-20T23:16:22.813Z,26.68
2022-08-20T23:18:55.339Z,26.66
2022-08-20T23:21:28.547Z,26.66
2022-08-20T23:24:00.731Z,26.64
2022-08-20T23:26:33.027Z,26.62
2022-08-20T23:29:05.285Z,26.62
2022-08-20T23:31:37.463Z,26.61
2022-08-20T23:34:09.883Z,26.59
2022-08-20T23:36:42.137Z,26.57
2022-08-20T23:39:14.671Z,26.55
2022-08-20T23:41:47.729Z,26.53
2022-08-20T23:44:26.494Z,26.51
2022-08-20T23:47:03.263Z,26.48
2022-08-20T23:49:35.480Z,26.45
2022-08-20T23:52:07.952Z,26.43
2022-08-20T23:54:40.140Z,26.40
2022-08-20T23:57:12.394Z,26.38
2022-08-20T23:59:46.221Z,26.37
